createdAt,value
2022-11-06T00:01:17.970Z,1.73
2022-11-06T00:03:46.251Z,1.33
2022-11-06T00:06:34.846Z,1.60
2022-11-06T00:09:04.878Z,2.22
2022-11-06T00:11:31.868Z,1.83
2022-11-06T00:14:00.044Z,1.10
2022-11-06T00:16:27.337Z,0.70
2022-11-06T00:18:54.488Z,0.45
2022-11-06T00:21:26.509Z,0.32
2022-11-06T00:23:54.421Z,0.30
2022-11-06T00:26:24.391Z,0.52
2022-11-06T00:28:52.431Z,1.88
2022-11-06T00:31:22.383Z,2.83
2022-11-06T00:33:49.835Z,2.45
2022-11-06T00:36:19.431Z,3.40
2022-11-06T00:38:46.561Z,3.85
2022-11-06T00:41:16.155Z,2.85
2022-11-06T00:43:47.848Z,3.63
2022-11-06T00:46:15.110Z,2.35
2022-11-06T00:48:42.506Z,2.95
2022-11-06T00:51:25.126Z,1.88
2022-11-06T00:54:00.474Z,1.30
2022-11-06T00:56:28.173Z,1.25
2022-11-06T00:58:55.944Z,2.00
2022-11-06T01:01:28.962Z,3.38
2022-11-06T01:03:58.838Z,5.22
2022-11-06T01:06:29.020Z,7.38
2022-11-06T01:08:56.316Z,8.88
2022-11-06T01:11:52.627Z,6.85
2022-11-06T01:14:20.612Z,5.65
2022-11-06T01:16:48.183Z,6.07
2022-11-06T01:19:17.281Z,5.75
2022-11-06T01:21:46.515Z,4.93
2022-11-06T01:24:19.701Z,5.40
2022-11-06T01:27:05.313Z,4.88
2022-11-06T01:29:34.171Z,2.92
2022-11-06T01:32:01.082Z,3.72
2022-11-06T01:34:28.112Z,4.30
2022-11-06T01:36:55.018Z,3.17
2022-11-06T01:39:21.898Z,2.10
2022-11-06T01:41:51.059Z,1.95
2022-11-06T01:44:36.226Z,1.50
2022-11-06T01:47:16.999Z,1.45
2022-11-06T01:49:44.714Z,1.35
2022-11-06T01:52:13.917Z,1.35
2022-11-06T01:54:44.389Z,1.08
2022-11-06T01:57:12.096Z,1.67
2022-11-06T01:59:43.607Z,1.45
2022-11-06T02:02:11.114Z,1.23
2022-11-06T02:04:44.399Z,1.20
2022-11-06T02:07:12.483Z,1.33
2022-11-06T02:09:39.519Z,1.10
2022-11-06T02:12:24.592Z,1.20
2022-11-06T02:14:57.216Z,1.20
2022-11-06T02:17:58.278Z,1.42
2022-11-06T02:20:44.575Z,1.02
2022-11-06T02:23:36.234Z,1.00
2022-11-06T02:29:11.455Z,0.77
2022-11-06T02:31:43.201Z,0.90
2022-11-06T02:34:16.907Z,0.68
2022-11-06T02:36:52.096Z,0.98
2022-11-06T02:39:22.838Z,1.10
2022-11-06T02:41:53.356Z,0.80
2022-11-06T02:44:25.111Z,0.80
2022-11-06T02:46:55.860Z,0.90
2022-11-06T02:49:45.312Z,0.90
2022-11-06T02:52:18.771Z,0.93
2022-11-06T02:55:07.886Z,0.80
2022-11-06T02:57:38.871Z,0.60
2022-11-06T03:00:07.616Z,0.60
2022-11-06T03:02:41.159Z,0.88
2022-11-06T03:05:19.832Z,0.98
2022-11-06T03:07:55.222Z,1.08
2022-11-06T03:10:27.611Z,0.70
2022-11-06T03:13:06.847Z,0.75
2022-11-06T03:15:45.300Z,0.68
2022-11-06T03:18:42.805Z,0.80
2022-11-06T03:21:26.335Z,1.20
2022-11-06T03:24:31.053Z,1.98
2022-11-06T03:27:02.678Z,1.98
2022-11-06T03:29:36.643Z,2.10
2022-11-06T03:32:30.866Z,1.63
2022-11-06T03:35:01.446Z,1.38
2022-11-06T03:37:36.174Z,1.27
2022-11-06T03:40:09.790Z,1.23
2022-11-06T03:42:40.365Z,1.00
2022-11-06T03:45:12.370Z,0.80
2022-11-06T03:47:43.976Z,0.80
2022-11-06T03:50:36.874Z,0.73
2022-11-06T03:53:12.085Z,0.47
2022-11-06T03:55:45.771Z,0.60
2022-11-06T03:58:18.552Z,0.55
2022-11-06T04:00:45.755Z,0.50
2022-11-06T04:03:23.856Z,0.65
2022-11-06T04:06:06.081Z,0.55
2022-11-06T04:08:52.566Z,0.80
2022-11-06T04:11:41.583Z,0.60
2022-11-06T04:14:09.394Z,0.65
2022-11-06T04:16:43.247Z,0.60
2022-11-06T04:19:22.484Z,0.63
2022-11-06T04:21:51.891Z,1.13
2022-11-06T04:25:23.340Z,1.20
2022-11-06T04:28:24.087Z,0.82
2022-11-06T04:31:12.183Z,0.80
2022-11-06T04:33:44.961Z,1.20
2022-11-06T04:36:27.204Z,1.13
2022-11-06T04:38:56.764Z,1.00
2022-11-06T04:41:35.736Z,0.90
2022-11-06T04:44:08.162Z,1.23
2022-11-06T04:46:42.943Z,1.30
2022-11-06T04:49:11.433Z,1.67
2022-11-06T04:51:40.981Z,1.58
2022-11-06T04:54:10.637Z,2.03
2022-11-06T04:56:42.819Z,1.27
2022-11-06T04:59:15.847Z,1.00
2022-11-06T05:01:42.920Z,1.02
2022-11-06T05:04:11.781Z,1.60
2022-11-06T05:06:38.675Z,1.30
2022-11-06T05:09:05.673Z,1.88
2022-11-06T05:11:32.723Z,1.33
2022-11-06T05:13:59.516Z,1.95
2022-11-06T05:16:26.417Z,1.80
2022-11-06T05:18:53.301Z,1.45
2022-11-06T05:21:38.635Z,1.80
2022-11-06T05:24:06.143Z,0.98
2022-11-06T05:26:33.280Z,1.35
2022-11-06T05:29:00.172Z,1.35
2022-11-06T05:31:27.118Z,1.15
2022-11-06T05:33:54.471Z,1.67
2022-11-06T05:36:21.578Z,1.70
2022-11-06T05:38:48.423Z,2.17
2022-11-06T05:41:15.306Z,1.38
2022-11-06T05:43:42.356Z,1.92
2022-11-06T05:46:29.672Z,1.23
2022-11-06T05:48:56.428Z,1.20
2022-11-06T05:51:23.319Z,2.25
2022-11-06T05:53:50.258Z,2.08
2022-11-06T05:56:17.205Z,2.30
2022-11-06T05:58:44.099Z,1.40
2022-11-06T06:01:12.423Z,1.27
2022-11-06T06:03:39.322Z,1.60
2022-11-06T06:06:06.519Z,1.23
2022-11-06T06:08:33.413Z,1.80
2022-11-06T06:11:00.268Z,1.88
2022-11-06T06:13:27.047Z,1.77
2022-11-06T06:15:53.989Z,1.83
2022-11-06T06:18:20.835Z,1.50
2022-11-06T06:20:47.636Z,1.65
2022-11-06T06:23:14.573Z,2.10
2022-11-06T06:25:41.621Z,2.00
2022-11-06T06:28:08.514Z,1.75
2022-11-06T06:30:36.122Z,2.50
2022-11-06T06:33:07.017Z,1.90
2022-11-06T06:35:34.417Z,1.85
2022-11-06T06:38:01.413Z,2.20
2022-11-06T06:40:29.904Z,1.67
2022-11-06T06:42:57.911Z,2.00
2022-11-06T06:45:26.086Z,2.25
2022-11-06T06:47:52.987Z,2.00
2022-11-06T06:50:19.889Z,2.03
2022-11-06T06:52:47.537Z,1.90
2022-11-06T06:55:14.491Z,2.50
2022-11-06T06:57:41.373Z,2.38
2022-11-06T07:00:08.739Z,1.90
2022-11-06T07:02:35.571Z,1.48
2022-11-06T07:05:02.516Z,1.73
2022-11-06T07:07:29.413Z,1.52
2022-11-06T07:09:56.218Z,2.85
2022-11-06T07:12:23.249Z,1.35
2022-11-06T07:14:50.094Z,2.88
2022-11-06T07:17:17.043Z,1.63
2022-11-06T07:19:43.884Z,1.80
2022-11-06T07:22:10.724Z,2.38
2022-11-06T07:24:37.630Z,2.42
2022-11-06T07:27:04.932Z,1.98
2022-11-06T07:29:31.811Z,2.72
2022-11-06T07:31:58.650Z,2.65
2022-11-06T07:34:25.650Z,1.98
2022-11-06T07:36:52.547Z,1.73
2022-11-06T07:39:19.505Z,1.85
2022-11-06T07:41:46.489Z,2.22
2022-11-06T07:44:13.580Z,1.95
2022-11-06T07:46:40.683Z,2.03
2022-11-06T07:49:07.575Z,2.13
2022-11-06T07:51:34.370Z,2.38
2022-11-06T07:54:01.309Z,1.38
2022-11-06T07:56:28.110Z,2.17
2022-11-06T07:58:54.897Z,1.98
2022-11-06T08:01:22.150Z,1.80
2022-11-06T08:03:49.042Z,3.22
2022-11-06T08:06:15.832Z,3.17
2022-11-06T08:08:42.733Z,1.65
2022-11-06T08:11:11.873Z,2.78
2022-11-06T08:13:39.438Z,2.10
2022-11-06T08:16:11.086Z,1.85
2022-11-06T08:18:38.859Z,2.53
2022-11-06T08:21:07.139Z,1.80
2022-11-06T08:23:35.403Z,1.88
2022-11-06T08:26:04.296Z,2.28
2022-11-06T08:28:31.139Z,1.55
2022-11-06T08:30:57.985Z,1.65
2022-11-06T08:33:25.895Z,2.25
2022-11-06T08:35:52.842Z,2.90
2022-11-06T08:38:19.700Z,1.75
2022-11-06T08:40:52.342Z,1.83
2022-11-06T08:43:20.640Z,2.38
2022-11-06T08:45:47.492Z,2.45
2022-11-06T08:48:14.273Z,2.78
2022-11-06T08:50:41.884Z,1.80
2022-11-06T08:53:09.196Z,2.35
2022-11-06T08:55:38.693Z,2.53
2022-11-06T08:58:07.019Z,2.22
2022-11-06T09:00:34.689Z,2.03
2022-11-06T09:03:07.564Z,1.88
2022-11-06T09:05:34.517Z,1.77
2022-11-06T09:08:02.023Z,2.20
2022-11-06T09:10:29.115Z,1.60
2022-11-06T09:12:58.671Z,1.65
2022-11-06T09:15:26.085Z,1.88
2022-11-06T09:17:53.640Z,1.95
2022-11-06T09:20:22.999Z,1.40
2022-11-06T09:22:49.833Z,2.00
2022-11-06T09:25:16.983Z,1.27
2022-11-06T09:27:49.762Z,1.30
2022-11-06T09:30:20.806Z,1.30
2022-11-06T09:32:50.265Z,1.55
2022-11-06T09:35:17.520Z,1.52
2022-11-06T09:37:44.571Z,0.88
2022-11-06T09:40:34.298Z,2.08
2022-11-06T09:43:43.132Z,1.30
2022-11-06T09:46:26.595Z,1.27
2022-11-06T09:49:20.935Z,1.02
2022-11-06T09:51:57.105Z,1.23
2022-11-06T09:54:28.393Z,1.20
2022-11-06T09:57:28.876Z,1.10
2022-11-06T09:59:57.968Z,1.15
2022-11-06T10:02:34.252Z,1.30
2022-11-06T10:05:19.565Z,0.93
2022-11-06T10:07:47.424Z,1.40
2022-11-06T10:10:19.654Z,0.88
2022-11-06T10:13:01.744Z,1.23
2022-11-06T10:15:36.632Z,1.48
2022-11-06T10:18:31.479Z,1.10
2022-11-06T10:21:06.923Z,1.20
2022-11-06T10:23:58.399Z,1.48
2022-11-06T10:26:34.495Z,1.08
2022-11-06T10:29:22.741Z,1.17
2022-11-06T10:32:05.469Z,1.80
2022-11-06T10:34:40.644Z,1.35
2022-11-06T10:37:17.563Z,1.55
2022-11-06T10:39:47.067Z,1.40
2022-11-06T10:42:18.031Z,1.60
2022-11-06T10:44:50.234Z,1.38
2022-11-06T10:47:22.662Z,2.05
2022-11-06T10:49:56.721Z,1.73
2022-11-06T10:52:44.711Z,1.25
2022-11-06T10:55:20.882Z,1.63
2022-11-06T10:57:57.293Z,1.35
2022-11-06T11:00:24.286Z,1.23
2022-11-06T11:02:57.273Z,1.75
2022-11-06T11:05:26.371Z,1.70
2022-11-06T11:07:55.157Z,1.40
2022-11-06T11:10:28.616Z,1.73
2022-11-06T11:12:57.901Z,1.20
2022-11-06T11:15:31.401Z,1.73
2022-11-06T11:18:14.091Z,1.35
2022-11-06T11:20:49.305Z,1.35
2022-11-06T11:23:18.200Z,1.23
2022-11-06T11:25:57.233Z,0.70
2022-11-06T11:28:34.460Z,0.50
2022-11-06T11:31:16.313Z,0.65
2022-11-06T11:33:55.382Z,0.68
2022-11-06T11:36:22.336Z,0.73
2022-11-06T11:38:49.541Z,1.25
2022-11-06T11:41:19.154Z,0.95
2022-11-06T11:44:07.486Z,0.57
2022-11-06T11:46:34.545Z,0.47
2022-11-06T11:49:02.501Z,0.55
2022-11-06T11:51:31.194Z,0.50
2022-11-06T11:54:09.758Z,0.40
2022-11-06T11:59:52.964Z,0.30
2022-11-06T12:02:51.860Z,0.60
2022-11-06T12:05:24.620Z,0.35
2022-11-06T12:07:57.249Z,0.50
2022-11-06T12:10:39.271Z,0.60
2022-11-06T12:13:15.412Z,0.63
2022-11-06T12:15:54.027Z,0.55
2022-11-06T12:18:35.768Z,0.50
2022-11-06T12:21:13.828Z,0.63
2022-11-06T12:23:48.350Z,0.75
2022-11-06T12:26:43.246Z,0.80
2022-11-06T12:29:16.249Z,0.70
2022-11-06T12:32:01.306Z,0.73
2022-11-06T12:34:37.918Z,1.27
2022-11-06T12:37:37.386Z,1.08
2022-11-06T12:40:20.858Z,1.08
2022-11-06T12:43:06.345Z,1.63
2022-11-06T12:45:54.751Z,1.15
2022-11-06T12:48:24.760Z,1.00
2022-11-06T12:51:15.517Z,1.27
2022-11-06T12:54:09.655Z,1.53
2022-11-06T12:57:09.772Z,1.40
2022-11-06T12:59:47.009Z,0.90
2022-11-06T13:02:35.547Z,1.60
2022-11-06T13:05:28.008Z,0.95
2022-11-06T13:08:12.444Z,1.00
2022-11-06T13:10:46.724Z,1.33
2022-11-06T13:13:35.594Z,0.88
2022-11-06T13:16:14.203Z,1.17
2022-11-06T13:18:50.407Z,1.15
2022-11-06T13:21:56.993Z,1.52
2022-11-06T13:24:42.926Z,1.33
2022-11-06T13:27:27.178Z,1.80
2022-11-06T13:30:02.727Z,1.35
2022-11-06T13:32:33.267Z,1.92
2022-11-06T13:35:01.834Z,1.77
2022-11-06T13:37:40.713Z,1.25
2022-11-06T13:40:10.585Z,1.70
2022-11-06T13:42:42.544Z,2.30
2022-11-06T13:45:14.861Z,1.45
2022-11-06T13:48:25.575Z,1.58
2022-11-06T13:51:21.505Z,1.33
2022-11-06T13:54:12.889Z,1.75
2022-11-06T13:56:54.619Z,1.35
2022-11-06T13:59:34.472Z,1.42
2022-11-06T14:02:13.328Z,0.93
2022-11-06T14:04:52.353Z,1.27
2022-11-06T14:07:22.126Z,0.70
2022-11-06T14:09:49.687Z,1.27
2022-11-06T14:12:23.142Z,0.80
2022-11-06T14:14:52.900Z,0.77
2022-11-06T14:17:24.400Z,0.63
2022-11-06T14:19:51.446Z,0.77
2022-11-06T14:22:30.421Z,0.88
2022-11-06T14:25:01.549Z,1.05
2022-11-06T14:27:29.370Z,0.90
2022-11-06T14:30:18.863Z,0.85
2022-11-06T14:32:48.299Z,0.90
2022-11-06T14:35:30.179Z,0.93
2022-11-06T14:38:18.655Z,0.80
2022-11-06T14:40:45.861Z,0.60
2022-11-06T14:43:26.933Z,0.82
2022-11-06T14:46:01.870Z,0.85
2022-11-06T14:48:39.760Z,0.98
2022-11-06T14:51:10.398Z,1.08
2022-11-06T14:54:31.519Z,0.70
2022-11-06T14:56:57.579Z,0.68
2022-11-06T14:59:37.153Z,0.80
2022-11-06T15:02:20.439Z,0.65
2022-11-06T15:04:57.633Z,1.80
2022-11-06T15:08:04.053Z,0.70
2022-11-06T15:10:44.684Z,0.65
2022-11-06T15:13:17.988Z,0.80
2022-11-06T15:16:03.606Z,0.75
2022-11-06T15:18:33.214Z,1.00
2022-11-06T15:21:08.143Z,1.30
2022-11-06T15:23:42.976Z,1.17
2022-11-06T15:26:44.886Z,1.20
2022-11-06T15:29:17.979Z,1.05
2022-11-06T15:31:48.753Z,1.15
2022-11-06T15:34:29.628Z,1.08
2022-11-06T15:37:23.100Z,1.38
2022-11-06T15:39:55.978Z,1.65
2022-11-06T15:42:28.759Z,1.15
2022-11-06T15:45:15.934Z,0.90
2022-11-06T15:48:04.343Z,0.95
2022-11-06T15:50:36.401Z,0.85
2022-11-06T15:53:12.592Z,0.80
2022-11-06T15:55:51.489Z,0.80
2022-11-06T15:58:18.326Z,0.65
2022-11-06T16:00:45.992Z,0.82
2022-11-06T16:03:19.845Z,0.90
2022-11-06T16:05:47.606Z,0.80
2022-11-06T16:08:16.623Z,1.00
2022-11-06T16:10:45.915Z,0.98
2022-11-06T16:13:15.023Z,1.27
2022-11-06T16:15:45.987Z,1.10
2022-11-06T16:18:42.114Z,0.80
2022-11-06T16:21:19.768Z,0.90
2022-11-06T16:23:49.433Z,0.90
2022-11-06T16:26:44.639Z,1.05
2022-11-06T16:29:24.032Z,0.90
2022-11-06T16:32:14.372Z,0.80
2022-11-06T16:34:46.159Z,1.00
2022-11-06T16:37:16.069Z,1.10
2022-11-06T16:39:49.194Z,1.60
2022-11-06T16:42:22.869Z,1.20
2022-11-06T16:44:51.323Z,1.15
2022-11-06T16:47:19.635Z,1.30
2022-11-06T16:49:53.944Z,1.10
2022-11-06T16:52:39.360Z,1.60
2022-11-06T16:55:16.827Z,1.25
2022-11-06T16:57:51.087Z,1.73
2022-11-06T17:00:20.658Z,1.30
2022-11-06T17:03:20.812Z,1.30
2022-11-06T17:05:56.985Z,1.30
2022-11-06T17:08:28.074Z,1.15
2022-11-06T17:10:57.931Z,1.73
2022-11-06T17:13:34.302Z,1.00
2022-11-06T17:16:04.934Z,0.73
2022-11-06T17:18:33.209Z,0.80
2022-11-06T17:21:02.673Z,1.00
2022-11-06T17:23:31.194Z,1.60
2022-11-06T17:26:06.016Z,1.10
2022-11-06T17:28:33.022Z,1.20
2022-11-06T17:30:59.870Z,0.90
2022-11-06T17:33:26.752Z,1.00
2022-11-06T17:35:53.749Z,1.50
2022-11-06T17:38:20.655Z,1.10
2022-11-06T17:40:47.892Z,0.65
2022-11-06T17:43:15.225Z,0.60
2022-11-06T17:45:44.957Z,1.23
2022-11-06T17:48:11.754Z,1.20
2022-11-06T17:50:57.293Z,1.30
2022-11-06T17:53:24.327Z,1.15
2022-11-06T17:55:51.385Z,1.83
2022-11-06T17:58:18.327Z,2.10
2022-11-06T18:00:45.890Z,1.30
2022-11-06T18:03:20.674Z,1.10
2022-11-06T18:05:47.968Z,1.33
2022-11-06T18:08:15.637Z,1.40
2022-11-06T18:10:42.923Z,1.38
2022-11-06T18:13:09.821Z,1.33
2022-11-06T18:15:37.284Z,1.40
2022-11-06T18:18:04.641Z,1.80
2022-11-06T18:20:31.573Z,1.15
2022-11-06T18:22:58.468Z,1.20
2022-11-06T18:25:25.417Z,2.58
2022-11-06T18:27:52.314Z,1.27
2022-11-06T18:30:19.252Z,1.27
2022-11-06T18:32:46.049Z,1.65
2022-11-06T18:35:12.991Z,0.93
2022-11-06T18:37:39.886Z,1.33
2022-11-06T18:40:07.294Z,1.15
2022-11-06T18:42:34.185Z,1.27
2022-11-06T18:45:01.074Z,1.48
2022-11-06T18:47:28.229Z,1.38
2022-11-06T18:49:55.172Z,1.42
2022-11-06T18:52:44.526Z,1.30
2022-11-06T18:55:09.431Z,1.10
2022-11-06T18:57:36.231Z,1.10
2022-11-06T19:00:03.428Z,1.33
2022-11-06T19:02:30.511Z,1.67
2022-11-06T19:04:57.487Z,1.15
2022-11-06T19:07:24.377Z,1.50
2022-11-06T19:09:51.264Z,1.63
2022-11-06T19:12:18.104Z,1.55
